createdAt,value
2019-03-19T00:01:46.757Z,5.90
2019-03-19T00:04:14.002Z,4.40
2019-03-19T00:06:41.549Z,4.50
2019-03-19T00:09:08.897Z,3.60
2019-03-19T00:11:36.175Z,11.00
2019-03-19T00:14:03.488Z,7.23
2019-03-19T00:16:30.813Z,5.43
2019-03-19T00:18:58.339Z,11.90
2019-03-19T00:21:25.614Z,4.97
2019-03-19T00:23:52.856Z,6.90
2019-03-19T00:26:20.390Z,5.53
2019-03-19T00:28:47.643Z,11.20
2019-03-19T00:31:15.140Z,7.97
2019-03-19T00:33:42.437Z,11.80
2019-03-19T00:36:09.934Z,6.03
2019-03-19T00:38:37.181Z,6.17
2019-03-19T00:41:04.790Z,8.90
2019-03-19T00:43:32.063Z,6.33
2019-03-19T00:45:59.578Z,3.90
2019-03-19T00:48:27.105Z,3.87
2019-03-19T00:50:54.617Z,7.00
2019-03-19T00:53:21.977Z,4.80
2019-03-19T00:55:49.218Z,10.60
2019-03-19T00:58:16.715Z,7.03
2019-03-19T01:00:43.979Z,6.93
2019-03-19T01:03:11.255Z,13.33
2019-03-19T01:05:38.498Z,8.80
2019-03-19T01:08:06.091Z,6.03
2019-03-19T01:10:33.366Z,6.20
2019-03-19T01:13:00.613Z,7.97
2019-03-19T01:15:27.886Z,7.83
2019-03-19T01:17:55.396Z,4.83
2019-03-19T01:20:23.012Z,7.90
2019-03-19T01:22:50.523Z,5.77
2019-03-19T01:25:18.788Z,6.93
2019-03-19T01:27:46.188Z,6.80
2019-03-19T01:30:14.125Z,8.07
2019-03-19T01:32:41.367Z,5.57
2019-03-19T01:35:08.642Z,6.80
2019-03-19T01:37:36.143Z,6.43
2019-03-19T01:40:05.018Z,4.93
2019-03-19T01:42:32.543Z,10.33
2019-03-19T01:44:59.805Z,6.60
2019-03-19T01:47:27.051Z,12.87
2019-03-19T01:49:54.330Z,6.43
2019-03-19T01:52:21.833Z,6.93
2019-03-19T01:54:49.113Z,13.40
2019-03-19T01:57:16.619Z,13.13
2019-03-19T01:59:44.115Z,6.20
2019-03-19T02:02:11.392Z,14.63
2019-03-19T02:04:38.670Z,9.63
2019-03-19T02:07:05.912Z,8.87
2019-03-19T02:09:33.187Z,10.47
2019-03-19T02:12:00.460Z,7.20
2019-03-19T02:14:27.733Z,11.07
2019-03-19T02:16:54.979Z,11.83
2019-03-19T02:19:22.256Z,8.23
2019-03-19T02:21:49.500Z,6.70
2019-03-19T02:24:17.017Z,11.90
2019-03-19T02:26:44.267Z,11.33
2019-03-19T02:29:11.542Z,5.73
2019-03-19T02:31:38.805Z,12.07
2019-03-19T02:34:06.040Z,9.53
2019-03-19T02:36:33.391Z,8.83
2019-03-19T02:39:00.636Z,8.83
2019-03-19T02:41:28.158Z,10.70
2019-03-19T02:43:55.399Z,12.73
2019-03-19T02:46:22.674Z,9.97
2019-03-19T02:48:49.932Z,9.43
2019-03-19T02:51:17.259Z,9.47
2019-03-19T02:53:44.501Z,8.67
2019-03-19T02:56:12.029Z,7.57
2019-03-19T02:58:39.280Z,16.23
2019-03-19T03:01:06.559Z,8.70
2019-03-19T03:03:34.059Z,13.60
2019-03-19T03:06:01.335Z,11.73
2019-03-19T03:08:28.598Z,14.07
2019-03-19T03:10:56.132Z,7.80
2019-03-19T03:13:23.407Z,11.17
2019-03-19T03:15:50.654Z,12.97
2019-03-19T03:18:17.937Z,11.90
2019-03-19T03:20:45.207Z,11.80
2019-03-19T03:23:12.493Z,10.50
2019-03-19T03:25:39.733Z,10.67
2019-03-19T03:28:07.045Z,9.20
2019-03-19T03:30:34.330Z,7.80
2019-03-19T03:33:01.575Z,10.83
2019-03-19T03:35:28.927Z,10.27
2019-03-19T03:37:56.166Z,16.70
2019-03-19T03:40:24.289Z,10.47
2019-03-19T03:42:51.531Z,11.00
2019-03-19T03:45:19.295Z,14.30
2019-03-19T03:47:46.542Z,17.67
2019-03-19T03:50:14.605Z,12.70
2019-03-19T03:52:41.881Z,15.13
2019-03-19T03:55:10.109Z,17.40
2019-03-19T03:57:37.634Z,12.47
2019-03-19T04:00:09.654Z,16.40
2019-03-19T04:02:37.182Z,13.03
2019-03-19T04:05:05.897Z,19.87
2019-03-19T04:07:33.440Z,14.73
2019-03-19T04:10:00.694Z,16.10
2019-03-19T04:12:27.974Z,15.10
2019-03-19T04:14:55.220Z,17.33
2019-03-19T04:17:22.469Z,15.03
2019-03-19T04:19:49.738Z,15.50
2019-03-19T04:22:17.009Z,13.67
2019-03-19T04:24:44.546Z,22.43
2019-03-19T04:27:16.444Z,14.00
2019-03-19T04:29:41.083Z,12.30
2019-03-19T04:32:08.379Z,14.10
2019-03-19T04:34:35.716Z,15.93
2019-03-19T04:37:02.994Z,14.40
2019-03-19T04:39:30.267Z,14.40
2019-03-19T04:41:57.537Z,14.53
2019-03-19T04:44:24.829Z,20.27
2019-03-19T04:46:52.145Z,17.83
2019-03-19T04:49:19.678Z,20.43
2019-03-19T04:51:46.927Z,15.63
2019-03-19T04:54:14.433Z,14.63
2019-03-19T04:56:41.958Z,19.43
2019-03-19T04:59:09.203Z,14.47
2019-03-19T05:01:36.749Z,21.27
2019-03-19T05:04:04.062Z,10.90
2019-03-19T05:06:31.338Z,13.43
2019-03-19T05:08:58.666Z,18.30
2019-03-19T05:11:25.958Z,21.30
2019-03-19T05:13:53.344Z,18.07
2019-03-19T05:16:20.621Z,14.30
2019-03-19T05:18:47.870Z,14.87
2019-03-19T05:21:15.391Z,23.13
2019-03-19T05:23:42.662Z,16.80
2019-03-19T05:26:09.948Z,17.33
2019-03-19T05:28:37.221Z,17.53
2019-03-19T05:31:04.502Z,12.07
2019-03-19T05:33:31.750Z,13.07
2019-03-19T05:35:59.015Z,12.50
2019-03-19T05:38:26.289Z,14.40
2019-03-19T05:40:53.540Z,11.70
2019-03-19T05:43:20.789Z,17.23
2019-03-19T05:45:48.076Z,15.00
2019-03-19T05:48:15.592Z,24.50
2019-03-19T05:50:42.837Z,20.08
2019-03-19T05:53:10.114Z,17.47
2019-03-19T05:55:37.371Z,17.90
2019-03-19T05:58:04.641Z,18.67
2019-03-19T06:00:33.779Z,16.33
2019-03-19T06:03:01.281Z,17.50
2019-03-19T06:05:28.553Z,16.60
2019-03-19T06:07:55.883Z,17.93
2019-03-19T06:10:23.154Z,15.93
2019-03-19T06:12:50.434Z,15.80
2019-03-19T06:15:17.755Z,15.53
2019-03-19T06:17:45.323Z,20.80
2019-03-19T06:20:15.807Z,19.13
2019-03-19T06:22:43.134Z,18.90
2019-03-19T06:25:10.787Z,23.13
2019-03-19T06:27:38.032Z,14.83
2019-03-19T06:30:12.761Z,15.90
2019-03-19T06:32:40.011Z,15.13
2019-03-19T06:35:08.365Z,24.20
2019-03-19T06:37:35.616Z,18.13
2019-03-19T06:40:03.957Z,18.20
2019-03-19T06:42:31.207Z,18.80
2019-03-19T06:44:58.485Z,16.73
2019-03-19T06:47:25.733Z,21.23
2019-03-19T06:49:53.014Z,27.30
2019-03-19T06:52:20.525Z,21.13
2019-03-19T06:54:48.027Z,23.40
2019-03-19T06:57:15.381Z,20.73
2019-03-19T06:59:42.654Z,18.30
2019-03-19T07:02:09.900Z,18.80
2019-03-19T07:04:37.183Z,20.73
2019-03-19T07:07:04.794Z,18.03
2019-03-19T07:09:32.322Z,22.57
2019-03-19T07:12:01.462Z,22.53
2019-03-19T07:14:28.576Z,20.20
2019-03-19T07:16:55.826Z,16.90
2019-03-19T07:19:23.101Z,18.40
2019-03-19T07:21:50.345Z,18.83
2019-03-19T07:24:17.628Z,15.50
2019-03-19T07:26:45.159Z,21.13
2019-03-19T07:29:12.411Z,20.50
2019-03-19T07:31:39.947Z,20.80
2019-03-19T07:34:07.234Z,20.70
2019-03-19T07:36:34.493Z,26.10
2019-03-19T07:39:01.770Z,18.97
2019-03-19T07:41:29.904Z,24.23
2019-03-19T07:43:57.179Z,21.47
2019-03-19T07:46:24.463Z,24.23
2019-03-19T07:48:51.717Z,25.63
2019-03-19T07:51:19.014Z,29.30
2019-03-19T07:53:46.252Z,21.73
2019-03-19T07:56:13.501Z,23.20
2019-03-19T07:58:45.156Z,21.73
2019-03-19T08:01:09.783Z,21.97
2019-03-19T08:03:37.066Z,23.73
2019-03-19T08:06:04.318Z,24.13
2019-03-19T08:08:31.593Z,23.13
2019-03-19T08:10:58.877Z,19.30
2019-03-19T08:13:26.151Z,16.23
2019-03-19T08:15:53.397Z,19.77
2019-03-19T08:18:20.710Z,20.87
2019-03-19T08:20:47.962Z,22.93
2019-03-19T08:23:15.210Z,25.87
2019-03-19T08:25:42.492Z,20.37
2019-03-19T08:28:09.748Z,15.70
2019-03-19T08:30:36.995Z,13.93
2019-03-19T08:33:04.279Z,13.70
2019-03-19T08:35:31.566Z,21.10
2019-03-19T08:37:58.814Z,22.43
2019-03-19T08:40:26.094Z,15.60
2019-03-19T08:42:53.388Z,17.57
2019-03-19T08:45:21.436Z,13.33
2019-03-19T08:47:48.726Z,19.97
2019-03-19T08:50:16.743Z,14.17
2019-03-19T08:52:43.993Z,13.23
2019-03-19T08:55:11.589Z,19.10
2019-03-19T08:57:38.908Z,16.80
2019-03-19T09:00:07.707Z,16.93
2019-03-19T09:02:35.054Z,18.80
2019-03-19T09:05:03.158Z,18.10
2019-03-19T09:07:30.562Z,14.97
2019-03-19T09:09:57.809Z,18.50
2019-03-19T09:12:25.090Z,18.30
2019-03-19T09:14:52.609Z,13.23
2019-03-19T09:17:19.858Z,13.60
2019-03-19T09:19:47.135Z,17.43
2019-03-19T09:22:15.195Z,16.10
2019-03-19T09:24:42.779Z,16.90
2019-03-19T09:27:10.057Z,8.97
2019-03-19T09:29:37.393Z,11.97
2019-03-19T09:32:04.703Z,8.83
2019-03-19T09:34:31.974Z,9.53
2019-03-19T09:36:59.226Z,14.13
2019-03-19T09:39:26.767Z,9.10
2019-03-19T09:41:54.258Z,9.93
2019-03-19T09:44:21.539Z,13.60
2019-03-19T09:46:48.786Z,6.70
2019-03-19T09:49:16.315Z,8.20
2019-03-19T09:51:43.586Z,7.20
2019-03-19T09:54:10.830Z,9.63
2019-03-19T09:56:38.116Z,19.23
2019-03-19T09:59:05.402Z,14.00
2019-03-19T10:01:32.647Z,9.97
2019-03-19T10:03:59.894Z,11.03
2019-03-19T10:06:27.175Z,8.13
2019-03-19T10:08:54.696Z,10.43
2019-03-19T10:11:22.219Z,10.20
2019-03-19T10:13:49.470Z,11.70
2019-03-19T10:16:16.758Z,10.40
2019-03-19T10:18:43.990Z,11.00
2019-03-19T10:21:11.272Z,6.83
2019-03-19T10:23:38.814Z,10.67
2019-03-19T10:26:06.125Z,10.07
2019-03-19T10:28:33.675Z,11.30
2019-03-19T10:31:00.953Z,12.73
2019-03-19T10:33:28.234Z,12.80
2019-03-19T10:35:55.506Z,16.00
2019-03-19T10:38:22.786Z,11.70
2019-03-19T10:40:50.306Z,11.50
2019-03-19T10:43:17.574Z,12.93
2019-03-19T10:45:44.858Z,13.17
2019-03-19T10:48:12.100Z,8.30
2019-03-19T10:50:39.376Z,7.67
2019-03-19T10:53:06.627Z,16.70
2019-03-19T10:55:33.906Z,11.53
2019-03-19T10:58:10.681Z,17.43
2019-03-19T11:00:30.182Z,12.60
2019-03-19T11:02:57.430Z,12.73
2019-03-19T11:05:24.978Z,8.03
2019-03-19T11:07:52.281Z,8.33
2019-03-19T11:10:19.628Z,12.60
2019-03-19T11:12:46.974Z,10.63
2019-03-19T11:15:15.286Z,10.00
2019-03-19T11:17:42.554Z,6.90
2019-03-19T11:20:11.265Z,13.23
2019-03-19T11:22:38.795Z,6.07
2019-03-19T11:25:07.654Z,8.83
2019-03-19T11:27:34.934Z,10.83
2019-03-19T11:30:02.186Z,7.23
2019-03-19T11:32:29.716Z,8.97
2019-03-19T11:34:56.995Z,6.80
2019-03-19T11:37:24.233Z,12.30
2019-03-19T11:39:51.519Z,14.10
2019-03-19T11:42:18.798Z,5.40
2019-03-19T11:44:46.080Z,11.87
2019-03-19T11:47:13.318Z,9.03
2019-03-19T11:49:40.597Z,11.70
2019-03-19T11:52:07.842Z,6.90
2019-03-19T11:54:35.110Z,6.60
2019-03-19T11:57:02.369Z,9.80
2019-03-19T11:59:29.868Z,8.83
2019-03-19T12:01:57.158Z,9.30
2019-03-19T12:04:24.433Z,11.70
2019-03-19T12:06:51.925Z,9.20
2019-03-19T12:09:19.466Z,10.53
2019-03-19T12:11:46.709Z,7.57
2019-03-19T12:14:14.196Z,13.20
2019-03-19T12:16:41.470Z,10.43
2019-03-19T12:19:08.753Z,12.10
2019-03-19T12:21:36.073Z,9.17
2019-03-19T12:24:03.375Z,9.60
2019-03-19T12:26:30.621Z,8.50
2019-03-19T12:28:57.869Z,16.73
2019-03-19T12:31:25.150Z,6.60
2019-03-19T12:33:52.397Z,11.90
2019-03-19T12:36:19.926Z,12.70
2019-03-19T12:38:47.174Z,8.17
2019-03-19T12:41:14.527Z,10.53
2019-03-19T12:43:42.034Z,10.47
2019-03-19T12:46:09.567Z,9.20
2019-03-19T12:48:36.819Z,9.17
2019-03-19T12:51:04.159Z,8.87
2019-03-19T12:53:31.693Z,10.23
2019-03-19T12:55:59.179Z,7.67
2019-03-19T12:58:26.717Z,13.63
2019-03-19T13:00:53.974Z,14.27
2019-03-19T13:03:21.534Z,11.40
2019-03-19T13:05:48.807Z,8.60
2019-03-19T13:08:16.100Z,11.73
2019-03-19T13:10:43.593Z,6.63
2019-03-19T13:13:10.870Z,10.97
2019-03-19T13:15:38.356Z,9.07
2019-03-19T13:18:05.763Z,8.97
2019-03-19T13:20:33.030Z,8.10
2019-03-19T13:23:00.274Z,8.53
2019-03-19T13:25:27.554Z,5.27
2019-03-19T13:27:54.806Z,6.17
2019-03-19T13:30:25.741Z,5.10
2019-03-19T13:32:52.990Z,7.80
2019-03-19T13:35:20.274Z,11.50
2019-03-19T13:37:47.810Z,12.03
2019-03-19T13:40:16.016Z,9.10
2019-03-19T13:42:43.586Z,8.77
2019-03-19T13:45:12.365Z,12.20
2019-03-19T13:47:39.650Z,6.40
2019-03-19T13:50:08.129Z,10.40
2019-03-19T13:52:35.371Z,8.33
2019-03-19T13:55:02.817Z,9.07
2019-03-19T13:57:30.091Z,12.60
2019-03-19T13:59:57.363Z,11.87
2019-03-19T14:02:24.634Z,8.30
2019-03-19T14:04:52.153Z,6.57
2019-03-19T14:07:19.687Z,7.93
2019-03-19T14:09:47.051Z,8.80
2019-03-19T14:12:14.303Z,8.53
2019-03-19T14:14:41.799Z,9.13
2019-03-19T14:17:09.345Z,10.87
2019-03-19T14:19:36.874Z,15.50
2019-03-19T14:22:04.129Z,10.63
2019-03-19T14:24:31.406Z,7.20
2019-03-19T14:26:58.674Z,7.90
2019-03-19T14:29:25.945Z,8.00
2019-03-19T14:31:53.221Z,10.73
2019-03-19T14:34:20.551Z,8.90
2019-03-19T14:36:48.059Z,4.87
2019-03-19T14:39:16.468Z,8.87
2019-03-19T14:41:45.705Z,7.80
2019-03-19T14:44:13.048Z,6.37
2019-03-19T14:46:40.348Z,8.70
2019-03-19T14:49:07.665Z,8.17
2019-03-19T14:51:34.918Z,6.30
2019-03-19T14:54:02.452Z,8.50
2019-03-19T14:56:29.689Z,7.40
2019-03-19T14:58:56.961Z,5.73
2019-03-19T15:01:24.244Z,6.17
2019-03-19T15:03:51.885Z,4.70
2019-03-19T15:06:19.209Z,10.87
2019-03-19T15:08:46.456Z,11.00
2019-03-19T15:11:14.317Z,10.90
2019-03-19T15:13:41.565Z,4.80
2019-03-19T15:16:08.910Z,9.37
2019-03-19T15:18:36.196Z,7.40
2019-03-19T15:21:03.471Z,8.23
2019-03-19T15:23:30.768Z,9.37
2019-03-19T15:25:59.331Z,10.30
2019-03-19T15:28:26.687Z,9.33
2019-03-19T15:30:54.208Z,6.60
2019-03-19T15:33:21.501Z,10.20
2019-03-19T15:35:48.752Z,6.83
2019-03-19T15:38:16.058Z,13.40
2019-03-19T15:40:43.307Z,9.43
2019-03-19T15:43:10.558Z,14.17
2019-03-19T15:45:37.840Z,9.53
2019-03-19T15:48:05.172Z,7.37
2019-03-19T15:50:32.852Z,5.07
2019-03-19T15:53:02.022Z,3.87
2019-03-19T15:55:29.403Z,3.40
2019-03-19T15:57:56.673Z,8.07
2019-03-19T16:00:24.118Z,8.77
2019-03-19T16:02:51.447Z,12.07
2019-03-19T16:05:18.696Z,10.20
2019-03-19T16:07:45.983Z,11.03
2019-03-19T16:10:13.594Z,7.90
2019-03-19T16:12:40.834Z,7.90
2019-03-19T16:15:09.477Z,8.97
2019-03-19T16:17:36.751Z,8.70
2019-03-19T16:20:05.898Z,11.10
2019-03-19T16:22:33.150Z,10.90
2019-03-19T16:25:00.430Z,8.30
2019-03-19T16:27:27.663Z,5.87
2019-03-19T16:29:55.189Z,11.37
2019-03-19T16:32:22.437Z,8.70
2019-03-19T16:34:49.683Z,6.40
2019-03-19T16:37:16.959Z,9.27
2019-03-19T16:39:44.450Z,9.80
2019-03-19T16:42:11.729Z,10.97
2019-03-19T16:44:39.005Z,3.47
2019-03-19T16:47:06.246Z,8.50
2019-03-19T16:49:33.519Z,9.83
2019-03-19T16:52:00.769Z,7.40
2019-03-19T16:54:28.009Z,5.97
2019-03-19T16:56:55.330Z,8.53
2019-03-19T16:59:22.911Z,6.70
2019-03-19T17:01:57.885Z,5.00
2019-03-19T17:04:19.406Z,10.20
2019-03-19T17:06:46.675Z,6.43
2019-03-19T17:09:13.922Z,6.63
2019-03-19T17:11:41.199Z,5.83
2019-03-19T17:14:08.522Z,3.60
2019-03-19T17:16:35.805Z,11.07
2019-03-19T17:19:04.161Z,6.07
2019-03-19T17:21:31.483Z,7.40
2019-03-19T17:23:58.722Z,4.27
2019-03-19T17:26:25.999Z,8.63
2019-03-19T17:28:53.274Z,11.70
2019-03-19T17:31:20.553Z,12.40
2019-03-19T17:33:47.822Z,11.23
2019-03-19T17:36:15.109Z,10.13
2019-03-19T17:38:42.347Z,6.77
2019-03-19T17:41:09.870Z,6.93
2019-03-19T17:43:37.362Z,9.10
2019-03-19T17:46:04.877Z,16.53
2019-03-19T17:48:32.130Z,10.20
2019-03-19T17:50:59.664Z,6.77
2019-03-19T17:53:26.946Z,9.67
2019-03-19T17:55:54.209Z,7.03
2019-03-19T17:58:21.462Z,8.40
2019-03-19T18:00:50.372Z,9.43
2019-03-19T18:03:17.646Z,3.83
2019-03-19T18:05:44.894Z,7.77
2019-03-19T18:08:12.167Z,5.77
2019-03-19T18:10:39.437Z,7.80
2019-03-19T18:13:06.903Z,13.23
2019-03-19T18:15:34.241Z,5.33
2019-03-19T18:18:01.505Z,7.97
2019-03-19T18:20:28.824Z,3.13
2019-03-19T18:22:56.207Z,4.47
2019-03-19T18:25:23.474Z,5.67
2019-03-19T18:27:50.789Z,6.65
2019-03-19T18:30:24.515Z,5.30
2019-03-19T18:32:51.811Z,7.53
2019-03-19T18:35:19.197Z,5.17
2019-03-19T18:37:47.168Z,6.80
2019-03-19T18:40:15.267Z,5.57
2019-03-19T18:42:42.757Z,5.27
2019-03-19T18:45:10.969Z,4.77
2019-03-19T18:47:38.275Z,5.87
2019-03-19T18:50:10.074Z,9.73
2019-03-19T18:52:37.356Z,4.47
2019-03-19T18:55:05.942Z,4.17
2019-03-19T18:57:33.293Z,9.10
2019-03-19T19:00:00.561Z,3.63
2019-03-19T19:02:27.806Z,9.97
2019-03-19T19:04:55.078Z,1.93
2019-03-19T19:07:22.387Z,9.10
2019-03-19T19:09:50.235Z,5.40
2019-03-19T19:12:17.974Z,4.30
2019-03-19T19:14:46.014Z,2.50
2019-03-19T19:17:13.460Z,6.50
2019-03-19T19:19:40.798Z,3.03
2019-03-19T19:22:08.114Z,3.87
2019-03-19T19:24:35.662Z,4.87
2019-03-19T19:27:03.038Z,5.37
2019-03-19T19:29:30.558Z,5.30
2019-03-19T19:31:57.797Z,5.27
2019-03-19T19:34:25.415Z,2.50
2019-03-19T19:36:52.665Z,9.53
2019-03-19T19:39:19.941Z,3.17
2019-03-19T19:41:47.475Z,7.90
2019-03-19T19:44:15.010Z,3.67
2019-03-19T19:46:42.507Z,3.03
2019-03-19T19:49:09.781Z,3.50
2019-03-19T19:51:37.286Z,9.40
2019-03-19T19:54:04.602Z,3.87
2019-03-19T19:56:31.877Z,3.97
2019-03-19T19:58:59.122Z,5.47
2019-03-19T20:01:26.390Z,1.83
2019-03-19T20:03:53.929Z,3.63
2019-03-19T20:06:21.278Z,6.97
2019-03-19T20:08:48.584Z,9.10
2019-03-19T20:11:15.897Z,6.47
2019-03-19T20:13:43.175Z,4.17
2019-03-19T20:16:10.691Z,3.47
2019-03-19T20:18:38.240Z,5.57
2019-03-19T20:21:05.486Z,8.97
2019-03-19T20:23:32.763Z,4.67
2019-03-19T20:26:00.291Z,7.10
2019-03-19T20:28:27.779Z,3.57
2019-03-19T20:30:55.047Z,3.43
2019-03-19T20:33:25.047Z,7.20
2019-03-19T20:35:51.544Z,4.60
2019-03-19T20:38:18.789Z,9.70
2019-03-19T20:40:46.065Z,6.63
2019-03-19T20:43:13.310Z,5.30
2019-03-19T20:45:40.556Z,4.10
2019-03-19T20:48:07.827Z,2.50
2019-03-19T20:50:36.143Z,2.40
2019-03-19T20:53:03.741Z,3.80
2019-03-19T20:55:30.985Z,15.13
2019-03-19T20:57:58.271Z,3.20
2019-03-19T21:00:25.522Z,6.23
2019-03-19T21:02:52.860Z,5.97
2019-03-19T21:05:20.129Z,2.80
2019-03-19T21:07:47.672Z,4.43
2019-03-19T21:10:16.378Z,10.53
2019-03-19T21:12:43.846Z,4.77
2019-03-19T21:15:23.802Z,8.53
2019-03-19T21:17:51.125Z,2.53
2019-03-19T21:20:18.414Z,7.00
2019-03-19T21:22:45.722Z,3.50
2019-03-19T21:25:13.100Z,3.43
2019-03-19T21:27:40.430Z,6.47
2019-03-19T21:30:09.476Z,6.63
2019-03-19T21:32:37.214Z,2.23
2019-03-19T21:35:05.853Z,5.50
2019-03-19T21:37:33.509Z,6.53
2019-03-19T21:40:01.319Z,4.73
2019-03-19T21:42:28.830Z,5.90
2019-03-19T21:44:56.141Z,8.03
2019-03-19T21:47:23.422Z,6.10
2019-03-19T21:49:50.667Z,5.47
2019-03-19T21:52:17.999Z,7.53
2019-03-19T21:54:45.333Z,7.23
2019-03-19T21:57:12.669Z,7.93
2019-03-19T21:59:40.194Z,7.57
2019-03-19T22:02:07.461Z,13.03
2019-03-19T22:04:35.057Z,3.07
2019-03-19T22:07:02.297Z,5.20
2019-03-19T22:09:29.567Z,3.83
2019-03-19T22:11:56.847Z,4.83
2019-03-19T22:14:24.193Z,2.50
2019-03-19T22:16:51.438Z,5.30
2019-03-19T22:19:18.958Z,4.97
2019-03-19T22:21:46.210Z,5.60
2019-03-19T22:24:13.478Z,5.70
2019-03-19T22:26:41.574Z,5.10
2019-03-19T22:29:08.890Z,4.13
2019-03-19T22:31:36.135Z,3.97
2019-03-19T22:34:13.538Z,5.70
2019-03-19T22:36:32.374Z,4.43
2019-03-19T22:38:59.642Z,6.23
2019-03-19T22:41:26.893Z,13.40
2019-03-19T22:43:54.237Z,4.00
2019-03-19T22:46:22.108Z,5.83
2019-03-19T22:48:49.524Z,6.53
2019-03-19T22:51:16.764Z,9.03
2019-03-19T22:53:44.038Z,4.97
2019-03-19T22:56:11.310Z,5.50
2019-03-19T22:58:38.837Z,3.63
2019-03-19T23:01:06.152Z,7.30
2019-03-19T23:03:33.639Z,3.80
2019-03-19T23:06:00.916Z,3.37
2019-03-19T23:08:28.165Z,6.00
2019-03-19T23:10:55.430Z,4.07
2019-03-19T23:13:22.703Z,6.90
2019-03-19T23:15:50.038Z,5.70
2019-03-19T23:18:17.288Z,5.00
2019-03-19T23:20:44.526Z,7.50
2019-03-19T23:23:12.049Z,6.23
2019-03-19T23:25:39.327Z,8.60
2019-03-19T23:28:06.598Z,12.77
2019-03-19T23:30:33.840Z,4.67
2019-03-19T23:33:01.193Z,7.03
2019-03-19T23:35:28.437Z,3.67
2019-03-19T23:37:55.705Z,5.97
2019-03-19T23:40:22.950Z,8.70
2019-03-19T23:42:50.347Z,8.93
2019-03-19T23:45:17.618Z,8.07
2019-03-19T23:47:44.901Z,5.23
2019-03-19T23:50:12.741Z,8.10
2019-03-19T23:52:39.986Z,6.57
2019-03-19T23:55:07.721Z,12.53
2019-03-19T23:57:35.003Z,8.43
